sensor_id;sensor_type;location;lat;lon;timestamp;temperature;humidity
11489;DHT22;5801;50.804;12.638;2023-05-18T06:26:53;11.90;1.00
11489;DHT22;5801;50.804;12.638;2023-05-18T06:29:19;13.20;99.90
11489;DHT22;5801;50.804;12.638;2023-05-18T06:31:45;13.20;99.90
11489;DHT22;5801;50.804;12.638;2023-05-18T06:34:11;13.50;99.90
11489;DHT22;5801;50.804;12.638;2023-05-18T06:36:37;13.50;99.90
11489;DHT22;5801;50.804;12.638;2023-05-18T06:39:03;13.60;99.90
11489;DHT22;5801;50.804;12.638;2023-05-18T06:41:29;13.80;99.90
11489;DHT22;5801;50.804;12.638;2023-05-18T06:43:55;14.00;99.90
11489;DHT22;5801;50.804;12.638;2023-05-18T06:46:24;13.40;99.90
11489;DHT22;5801;50.804;12.638;2023-05-18T06:48:51;12.50;99.90
11489;DHT22;5801;50.804;12.638;2023-05-18T06:51:16;12.30;99.90
11489;DHT22;5801;50.804;12.638;2023-05-18T06:53:42;12.10;99.90
11489;DHT22;5801;50.804;12.638;2023-05-18T06:56:08;12.30;99.90
11489;DHT22;5801;50.804;12.638;2023-05-18T06:58:36;12.10;99.90
11489;DHT22;5801;50.804;12.638;2023-05-18T07:01:01;12.40;99.90
11489;DHT22;5801;50.804;12.638;2023-05-18T07:03:27;12.70;99.90
11489;DHT22;5801;50.804;12.638;2023-05-18T07:05:52;12.80;99.90
11489;DHT22;5801;50.804;12.638;2023-05-18T07:08:18;12.40;99.90
11489;DHT22;5801;50.804;12.638;2023-05-18T07:10:44;12.60;99.90
11489;DHT22;5801;50.804;12.638;2023-05-18T07:13:09;12.80;99.90
11489;DHT22;5801;50.804;12.638;2023-05-18T07:15:35;13.30;99.90
11489;DHT22;5801;50.804;12.638;2023-05-18T07:18:02;14.00;99.90
11489;DHT22;5801;50.804;12.638;2023-05-18T07:20:28;14.10;99.90
11489;DHT22;5801;50.804;12.638;2023-05-18T07:22:53;13.80;99.90
11489;DHT22;5801;50.804;12.638;2023-05-18T07:25:22;13.90;99.90
11489;DHT22;5801;50.804;12.638;2023-05-18T07:27:48;14.20;99.90
11489;DHT22;5801;50.804;12.638;2023-05-18T07:30:16;14.20;99.90
11489;DHT22;5801;50.804;12.638;2023-05-18T07:32:42;14.60;99.90
11489;DHT22;5801;50.804;12.638;2023-05-18T07:35:09;14.90;99.90
11489;DHT22;5801;50.804;12.638;2023-05-18T07:37:35;15.20;99.90
11489;DHT22;5801;50.804;12.638;2023-05-18T07:40:01;15.10;99.90
11489;DHT22;5801;50.804;12.638;2023-05-18T07:42:26;14.80;99.90
11489;DHT22;5801;50.804;12.638;2023-05-18T07:44:52;14.70;99.90
11489;DHT22;5801;50.804;12.638;2023-05-18T07:47:17;14.90;99.90
11489;DHT22;5801;50.804;12.638;2023-05-18T07:49:45;14.90;99.90
11489;DHT22;5801;50.804;12.638;2023-05-18T07:52:11;14.90;99.90
11489;DHT22;5801;50.804;12.638;2023-05-18T07:54:37;14.50;1.00
11489;DHT22;5801;50.804;12.638;2023-05-18T07:57:03;14.30;99.90
11489;DHT22;5801;50.804;12.638;2023-05-18T07:59:28;15.10;99.90
11489;DHT22;5801;50.804;12.638;2023-05-18T08:01:54;14.90;99.90
11489;DHT22;5801;50.804;12.638;2023-05-18T08:04:20;14.70;99.90
11489;DHT22;5801;50.804;12.638;2023-05-18T08:06:45;14.70;99.90
11489;DHT22;5801;50.804;12.638;2023-05-18T08:09:11;15.00;99.90
11489;DHT22;5801;50.804;12.638;2023-05-18T08:11:36;14.40;99.90
11489;DHT22;5801;50.804;12.638;2023-05-18T08:14:02;14.20;99.90
11489;DHT22;5801;50.804;12.638;2023-05-18T08:18:53;13.90;99.90
11489;DHT22;5801;50.804;12.638;2023-05-18T08:21:19;12.70;99.90
11489;DHT22;5801;50.804;12.638;2023-05-18T08:23:45;13.10;99.90
11489;DHT22;5801;50.804;12.638;2023-05-18T08:53:29;12.70;99.90
11489;DHT22;5801;50.804;12.638;2023-05-18T08:55:56;13.80;99.90
11489;DHT22;5801;50.804;12.638;2023-05-18T08:58:31;13.80;99.90
11489;DHT22;5801;50.804;12.638;2023-05-18T09:00:58;14.20;99.90
11489;DHT22;5801;50.804;12.638;2023-05-18T09:03:24;14.00;99.90
11489;DHT22;5801;50.804;12.638;2023-05-18T09:05:51;14.40;99.90
11489;DHT22;5801;50.804;12.638;2023-05-18T09:08:18;14.10;99.90
11489;DHT22;5801;50.804;12.638;2023-05-18T09:10:44;14.90;99.90
11489;DHT22;5801;50.804;12.638;2023-05-18T09:13:11;14.90;99.90
11489;DHT22;5801;50.804;12.638;2023-05-18T09:15:38;14.30;99.90
11489;DHT22;5801;50.804;12.638;2023-05-18T09:18:04;14.30;99.90
11489;DHT22;5801;50.804;12.638;2023-05-18T09:20:31;14.70;99.90
11489;DHT22;5801;50.804;12.638;2023-05-18T09:22:58;15.50;99.90
11489;DHT22;5801;50.804;12.638;2023-05-18T09:25:26;15.60;99.90
11489;DHT22;5801;50.804;12.638;2023-05-18T09:27:51;15.90;99.90
11489;DHT22;5801;50.804;12.638;2023-05-18T09:30:17;16.20;99.90
11489;DHT22;5801;50.804;12.638;2023-05-18T09:32:45;17.40;99.90
11489;DHT22;5801;50.804;12.638;2023-05-18T09:35:11;16.50;99.90
11489;DHT22;5801;50.804;12.638;2023-05-18T09:37:40;16.20;99.90
11489;DHT22;5801;50.804;12.638;2023-05-18T09:40:07;16.40;99.90
11489;DHT22;5801;50.804;12.638;2023-05-18T09:48:05;16.00;99.90
11489;DHT22;5801;50.804;12.638;2023-05-18T09:50:31;15.10;99.90
11489;DHT22;5801;50.804;12.638;2023-05-18T09:53:10;15.10;99.90
11489;DHT22;5801;50.804;12.638;2023-05-18T09:56:17;15.00;99.90
11489;DHT22;5801;50.804;12.638;2023-05-18T09:58:57;14.60;99.90
11489;DHT22;5801;50.804;12.638;2023-05-18T10:01:23;14.70;99.90
11489;DHT22;5801;50.804;12.638;2023-05-18T10:03:48;14.70;99.90
11489;DHT22;5801;50.804;12.638;2023-05-18T10:06:14;14.20;99.90
11489;DHT22;5801;50.804;12.638;2023-05-18T10:08:44;14.50;99.90
11489;DHT22;5801;50.804;12.638;2023-05-18T10:11:10;15.20;99.90
11489;DHT22;5801;50.804;12.638;2023-05-18T10:13:35;15.30;99.90
11489;DHT22;5801;50.804;12.638;2023-05-18T10:16:02;14.90;99.90
11489;DHT22;5801;50.804;12.638;2023-05-18T10:18:35;14.60;99.90
11489;DHT22;5801;50.804;12.638;2023-05-18T10:21:03;14.70;99.90
11489;DHT22;5801;50.804;12.638;2023-05-18T10:23:33;14.40;99.90
11489;DHT22;5801;50.804;12.638;2023-05-18T10:25:59;14.10;99.90
11489;DHT22;5801;50.804;12.638;2023-05-18T10:28:30;13.80;99.90
11489;DHT22;5801;50.804;12.638;2023-05-18T10:31:08;13.80;99.90
11489;DHT22;5801;50.804;12.638;2023-05-18T10:34:06;13.70;99.90
11489;DHT22;5801;50.804;12.638;2023-05-18T10:36:33;13.90;99.90
11489;DHT22;5801;50.804;12.638;2023-05-18T10:39:01;13.90;99.90
11489;DHT22;5801;50.804;12.638;2023-05-18T10:41:29;13.70;99.90
11489;DHT22;5801;50.804;12.638;2023-05-18T10:43:57;13.80;99.90
11489;DHT22;5801;50.804;12.638;2023-05-18T10:46:29;14.00;99.90
11489;DHT22;5801;50.804;12.638;2023-05-18T10:48:56;13.50;99.90
11489;DHT22;5801;50.804;12.638;2023-05-18T10:51:23;13.30;99.90
11489;DHT22;5801;50.804;12.638;2023-05-18T10:53:50;13.50;99.90
11489;DHT22;5801;50.804;12.638;2023-05-18T10:56:17;13.80;99.90
11489;DHT22;5801;50.804;12.638;2023-05-18T10:58:43;13.90;99.90
11489;DHT22;5801;50.804;12.638;2023-05-18T11:01:10;14.30;99.90
11489;DHT22;5801;50.804;12.638;2023-05-18T11:03:37;14.30;99.90
11489;DHT22;5801;50.804;12.638;2023-05-18T11:06:10;14.20;99.90
11489;DHT22;5801;50.804;12.638;2023-05-18T11:08:46;14.40;99.90
11489;DHT22;5801;50.804;12.638;2023-05-18T11:11:12;14.70;99.90
11489;DHT22;5801;50.804;12.638;2023-05-18T11:13:44;14.20;99.90
11489;DHT22;5801;50.804;12.638;2023-05-18T11:16:13;14.00;99.90
11489;DHT22;5801;50.804;12.638;2023-05-18T11:18:44;14.20;99.90
11489;DHT22;5801;50.804;12.638;2023-05-18T11:21:29;14.20;99.90
11489;DHT22;5801;50.804;12.638;2023-05-18T11:24:25;14.00;99.90
11489;DHT22;5801;50.804;12.638;2023-05-18T11:26:58;14.10;99.90
11489;DHT22;5801;50.804;12.638;2023-05-18T11:29:34;13.80;99.90
11489;DHT22;5801;50.804;12.638;2023-05-18T11:31:59;14.00;99.90
11489;DHT22;5801;50.804;12.638;2023-05-18T11:34:45;14.30;99.90
11489;DHT22;5801;50.804;12.638;2023-05-18T11:37:15;14.40;99.90
11489;DHT22;5801;50.804;12.638;2023-05-18T11:39:51;14.40;99.90
11489;DHT22;5801;50.804;12.638;2023-05-18T11:42:17;14.30;99.90
11489;DHT22;5801;50.804;12.638;2023-05-18T11:44:50;13.80;99.90
11489;DHT22;5801;50.804;12.638;2023-05-18T11:47:17;14.00;99.90
11489;DHT22;5801;50.804;12.638;2023-05-18T11:49:47;14.30;99.90
11489;DHT22;5801;50.804;12.638;2023-05-18T11:52:16;14.30;99.90
11489;DHT22;5801;50.804;12.638;2023-05-18T11:54:45;14.30;99.90
11489;DHT22;5801;50.804;12.638;2023-05-18T11:57:12;14.30;99.90
11489;DHT22;5801;50.804;12.638;2023-05-18T11:59:43;14.20;99.90
11489;DHT22;5801;50.804;12.638;2023-05-18T12:02:09;14.60;99.90
11489;DHT22;5801;50.804;12.638;2023-05-18T12:04:43;14.20;99.90
11489;DHT22;5801;50.804;12.638;2023-05-18T12:07:10;14.20;99.90
11489;DHT22;5801;50.804;12.638;2023-05-18T12:09:39;14.20;99.90
11489;DHT22;5801;50.804;12.638;2023-05-18T12:12:06;14.00;99.90
11489;DHT22;5801;50.804;12.638;2023-05-18T12:14:33;13.90;99.90
11489;DHT22;5801;50.804;12.638;2023-05-18T12:17:00;14.00;99.90
11489;DHT22;5801;50.804;12.638;2023-05-18T12:19:26;14.00;99.90
11489;DHT22;5801;50.804;12.638;2023-05-18T12:21:52;13.90;99.90
11489;DHT22;5801;50.804;12.638;2023-05-18T12:24:18;14.20;99.90
11489;DHT22;5801;50.804;12.638;2023-05-18T12:26:43;14.20;99.90
11489;DHT22;5801;50.804;12.638;2023-05-18T12:29:11;14.40;99.90
11489;DHT22;5801;50.804;12.638;2023-05-18T12:31:39;13.80;99.90
11489;DHT22;5801;50.804;12.638;2023-05-18T12:34:08;14.00;99.90
11489;DHT22;5801;50.804;12.638;2023-05-18T12:36:40;14.00;99.90
11489;DHT22;5801;50.804;12.638;2023-05-18T12:39:07;14.30;99.90
11489;DHT22;5801;50.804;12.638;2023-05-18T12:41:33;14.10;99.90
11489;DHT22;5801;50.804;12.638;2023-05-18T12:43:58;14.40;99.90
11489;DHT22;5801;50.804;12.638;2023-05-18T12:46:24;14.50;99.90
11489;DHT22;5801;50.804;12.638;2023-05-18T12:48:59;14.60;99.90
11489;DHT22;5801;50.804;12.638;2023-05-18T12:51:31;14.70;99.90
11489;DHT22;5801;50.804;12.638;2023-05-18T12:53:57;14.40;99.90
11489;DHT22;5801;50.804;12.638;2023-05-18T12:56:23;14.00;99.90
11489;DHT22;5801;50.804;12.638;2023-05-18T20:23:16;11.40;99.90
11489;DHT22;5801;50.804;12.638;2023-05-18T20:25:43;10.90;99.90
11489;DHT22;5801;50.804;12.638;2023-05-18T20:28:11;10.90;99.90
11489;DHT22;5801;50.804;12.638;2023-05-18T20:30:37;10.90;99.90
11489;DHT22;5801;50.804;12.638;2023-05-18T20:33:03;10.90;99.90
11489;DHT22;5801;50.804;12.638;2023-05-18T20:35:29;11.00;99.90
11489;DHT22;5801;50.804;12.638;2023-05-18T20:37:55;10.80;99.90
11489;DHT22;5801;50.804;12.638;2023-05-18T20:40:22;10.80;99.90
11489;DHT22;5801;50.804;12.638;2023-05-18T20:42:48;10.80;99.90
11489;DHT22;5801;50.804;12.638;2023-05-18T20:45:13;10.80;99.90
11489;DHT22;5801;50.804;12.638;2023-05-18T20:47:40;10.70;99.90
11489;DHT22;5801;50.804;12.638;2023-05-18T20:50:07;10.70;99.90
11489;DHT22;5801;50.804;12.638;2023-05-18T20:52:33;10.70;99.90
11489;DHT22;5801;50.804;12.638;2023-05-18T20:54:59;10.80;99.90
11489;DHT22;5801;50.804;12.638;2023-05-18T20:57:24;10.70;99.90
11489;DHT22;5801;50.804;12.638;2023-05-18T20:59:52;10.70;99.90
11489;DHT22;5801;50.804;12.638;2023-05-18T21:02:17;10.70;99.90
11489;DHT22;5801;50.804;12.638;2023-05-18T21:04:44;10.50;1.00
11489;DHT22;5801;50.804;12.638;2023-05-18T21:07:11;10.60;99.90
11489;DHT22;5801;50.804;12.638;2023-05-18T21:09:36;10.70;99.90
11489;DHT22;5801;50.804;12.638;2023-05-18T21:12:03;10.70;99.90
11489;DHT22;5801;50.804;12.638;2023-05-18T21:14:29;10.70;99.90
11489;DHT22;5801;50.804;12.638;2023-05-18T21:16:55;10.60;99.90
11489;DHT22;5801;50.804;12.638;2023-05-18T21:19:20;10.60;99.90
11489;DHT22;5801;50.804;12.638;2023-05-18T21:21:46;10.60;99.90
11489;DHT22;5801;50.804;12.638;2023-05-18T21:24:11;10.50;99.90
11489;DHT22;5801;50.804;12.638;2023-05-18T21:26:37;10.50;99.90
11489;DHT22;5801;50.804;12.638;2023-05-18T21:29:02;10.50;99.90
11489;DHT22;5801;50.804;12.638;2023-05-18T21:31:28;10.50;99.90
11489;DHT22;5801;50.804;12.638;2023-05-18T21:33:53;10.50;99.90
11489;DHT22;5801;50.804;12.638;2023-05-18T21:36:26;10.50;99.90
11489;DHT22;5801;50.804;12.638;2023-05-18T21:39:02;10.50;99.90
11489;DHT22;5801;50.804;12.638;2023-05-18T21:41:28;10.50;99.90
11489;DHT22;5801;50.804;12.638;2023-05-18T21:43:54;10.50;99.90
11489;DHT22;5801;50.804;12.638;2023-05-18T21:46:20;10.50;99.90
11489;DHT22;5801;50.804;12.638;2023-05-18T21:48:46;10.50;99.90
11489;DHT22;5801;50.804;12.638;2023-05-18T21:51:11;10.50;99.90
11489;DHT22;5801;50.804;12.638;2023-05-18T21:53:38;10.50;99.90
11489;DHT22;5801;50.804;12.638;2023-05-18T21:56:04;10.40;99.90
11489;DHT22;5801;50.804;12.638;2023-05-18T21:58:29;10.50;99.90
11489;DHT22;5801;50.804;12.638;2023-05-18T22:00:55;10.50;99.90
11489;DHT22;5801;50.804;12.638;2023-05-18T22:03:20;10.50;99.90
11489;DHT22;5801;50.804;12.638;2023-05-18T22:05:48;10.40;99.90
11489;DHT22;5801;50.804;12.638;2023-05-18T22:08:13;10.50;99.90
11489;DHT22;5801;50.804;12.638;2023-05-18T22:10:39;10.40;99.90
11489;DHT22;5801;50.804;12.638;2023-05-18T22:13:05;10.40;99.90
11489;DHT22;5801;50.804;12.638;2023-05-18T22:15:30;10.40;99.90
11489;DHT22;5801;50.804;12.638;2023-05-18T22:17:57;10.30;99.90
11489;DHT22;5801;50.804;12.638;2023-05-18T22:20:26;10.40;99.90
11489;DHT22;5801;50.804;12.638;2023-05-18T22:22:51;10.30;99.90
11489;DHT22;5801;50.804;12.638;2023-05-18T22:25:17;10.40;99.90
11489;DHT22;5801;50.804;12.638;2023-05-18T22:27:43;10.40;99.90
11489;DHT22;5801;50.804;12.638;2023-05-18T22:30:09;10.30;99.90
11489;DHT22;5801;50.804;12.638;2023-05-18T22:32:35;10.30;99.90
11489;DHT22;5801;50.804;12.638;2023-05-18T22:35:01;10.40;99.90
11489;DHT22;5801;50.804;12.638;2023-05-18T22:37:27;10.50;99.90
11489;DHT22;5801;50.804;12.638;2023-05-18T22:39:52;10.20;99.90
11489;DHT22;5801;50.804;12.638;2023-05-18T22:42:18;10.20;99.90
11489;DHT22;5801;50.804;12.638;2023-05-18T22:44:43;10.00;1.00
11489;DHT22;5801;50.804;12.638;2023-05-18T22:47:09;10.10;99.90
11489;DHT22;5801;50.804;12.638;2023-05-18T22:49:35;10.00;99.90
11489;DHT22;5801;50.804;12.638;2023-05-18T22:52:01;10.00;99.90
11489;DHT22;5801;50.804;12.638;2023-05-18T22:54:29;10.00;99.90
11489;DHT22;5801;50.804;12.638;2023-05-18T22:56:55;10.00;99.90
11489;DHT22;5801;50.804;12.638;2023-05-18T22:59:20;10.00;99.90
11489;DHT22;5801;50.804;12.638;2023-05-18T23:01:47;10.00;99.90
11489;DHT22;5801;50.804;12.638;2023-05-18T23:04:16;10.10;1.00
11489;DHT22;5801;50.804;12.638;2023-05-18T23:06:43;10.00;99.90
11489;DHT22;5801;50.804;12.638;2023-05-18T23:09:09;10.00;99.90
11489;DHT22;5801;50.804;12.638;2023-05-18T23:11:35;10.10;99.90
11489;DHT22;5801;50.804;12.638;2023-05-18T23:14:01;10.10;99.90
11489;DHT22;5801;50.804;12.638;2023-05-18T23:16:27;10.10;99.90
11489;DHT22;5801;50.804;12.638;2023-05-18T23:18:53;10.00;99.90
11489;DHT22;5801;50.804;12.638;2023-05-18T23:21:19;9.90;99.90
11489;DHT22;5801;50.804;12.638;2023-05-18T23:23:45;9.90;99.90
11489;DHT22;5801;50.804;12.638;2023-05-18T23:26:11;9.90;99.90
11489;DHT22;5801;50.804;12.638;2023-05-18T23:28:37;9.90;99.90
11489;DHT22;5801;50.804;12.638;2023-05-18T23:31:02;9.90;99.90
11489;DHT22;5801;50.804;12.638;2023-05-18T23:33:28;9.90;99.90
11489;DHT22;5801;50.804;12.638;2023-05-18T23:35:58;9.80;99.90
11489;DHT22;5801;50.804;12.638;2023-05-18T23:38:26;9.70;99.90
11489;DHT22;5801;50.804;12.638;2023-05-18T23:41:00;9.80;99.90
11489;DHT22;5801;50.804;12.638;2023-05-18T23:43:26;10.70;99.90
11489;DHT22;5801;50.804;12.638;2023-05-18T23:45:52;9.60;99.90
11489;DHT22;5801;50.804;12.638;2023-05-18T23:48:18;9.60;99.90
11489;DHT22;5801;50.804;12.638;2023-05-18T23:50:43;9.60;99.90
11489;DHT22;5801;50.804;12.638;2023-05-18T23:53:11;9.60;99.90
11489;DHT22;5801;50.804;12.638;2023-05-18T23:55:39;9.70;99.90
11489;DHT22;5801;50.804;12.638;2023-05-18T23:58:06;9.70;99.90
